sensor_id;sensor_type;location;lat;lon;timestamp;P1;durP1;ratioP1;P2;durP2;ratioP2
76176;SDS011;64938;47.696;8.066;2023-12-20T01:07:04;1.67;;;1.58;;
76176;SDS011;64938;47.696;8.066;2023-12-20T01:09:32;2.07;;;1.60;;
76176;SDS011;64938;47.696;8.066;2023-12-20T01:11:59;1.70;;;1.60;;
76176;SDS011;64938;47.696;8.066;2023-12-20T01:14:24;1.70;;;1.60;;
76176;SDS011;64938;47.696;8.066;2023-12-20T01:16:50;1.83;;;1.73;;
76176;SDS011;64938;47.696;8.066;2023-12-20T01:19:16;1.77;;;1.67;;
76176;SDS011;64938;47.696;8.066;2023-12-20T01:21:42;1.67;;;1.57;;
76176;SDS011;64938;47.696;8.066;2023-12-20T01:24:08;1.47;;;1.37;;
76176;SDS011;64938;47.696;8.066;2023-12-20T01:26:35;1.47;;;1.37;;
76176;SDS011;64938;47.696;8.066;2023-12-20T01:29:01;1.40;;;1.30;;
76176;SDS011;64938;47.696;8.066;2023-12-20T01:31:27;1.43;;;1.30;;
76176;SDS011;64938;47.696;8.066;2023-12-20T01:33:54;1.40;;;1.30;;
76176;SDS011;64938;47.696;8.066;2023-12-20T01:36:20;1.03;;;1.03;;
76176;SDS011;64938;47.696;8.066;2023-12-20T01:38:46;0.97;;;0.97;;
76176;SDS011;64938;47.696;8.066;2023-12-20T01:41:12;0.90;;;0.90;;
76176;SDS011;64938;47.696;8.066;2023-12-20T01:43:38;1.20;;;1.20;;
76176;SDS011;64938;47.696;8.066;2023-12-20T01:46:04;0.90;;;0.90;;
76176;SDS011;64938;47.696;8.066;2023-12-20T01:48:32;1.07;;;0.97;;
76176;SDS011;64938;47.696;8.066;2023-12-20T01:50:59;0.90;;;0.90;;
76176;SDS011;64938;47.696;8.066;2023-12-20T01:53:25;0.60;;;0.60;;
76176;SDS011;64938;47.696;8.066;2023-12-20T01:55:53;0.80;;;0.80;;
76176;SDS011;64938;47.696;8.066;2023-12-20T01:58:20;0.83;;;0.83;;
76176;SDS011;64938;47.696;8.066;2023-12-20T02:00:47;0.77;;;0.77;;
76176;SDS011;64938;47.696;8.066;2023-12-20T02:03:13;0.50;;;0.50;;
76176;SDS011;64938;47.696;8.066;2023-12-20T02:05:39;0.67;;;0.67;;
76176;SDS011;64938;47.696;8.066;2023-12-20T02:08:06;0.97;;;0.50;;
76176;SDS011;64938;47.696;8.066;2023-12-20T02:10:32;1.37;;;0.60;;
76176;SDS011;64938;47.696;8.066;2023-12-20T02:12:58;0.63;;;0.60;;
76176;SDS011;64938;47.696;8.066;2023-12-20T02:15:24;0.67;;;0.50;;
76176;SDS011;64938;47.696;8.066;2023-12-20T02:17:50;0.67;;;0.67;;
76176;SDS011;64938;47.696;8.066;2023-12-20T02:20:16;0.50;;;0.50;;
76176;SDS011;64938;47.696;8.066;2023-12-20T02:22:42;0.40;;;0.40;;
76176;SDS011;64938;47.696;8.066;2023-12-20T02:25:08;0.50;;;0.50;;
76176;SDS011;64938;47.696;8.066;2023-12-20T02:27:38;0.50;;;0.50;;
76176;SDS011;64938;47.696;8.066;2023-12-20T02:30:05;0.50;;;0.50;;
76176;SDS011;64938;47.696;8.066;2023-12-20T02:32:31;0.60;;;0.50;;
76176;SDS011;64938;47.696;8.066;2023-12-20T02:34:58;0.50;;;0.50;;
76176;SDS011;64938;47.696;8.066;2023-12-20T02:37:23;0.40;;;0.37;;
76176;SDS011;64938;47.696;8.066;2023-12-20T02:39:50;0.50;;;0.50;;
76176;SDS011;64938;47.696;8.066;2023-12-20T02:42:16;0.50;;;0.50;;
76176;SDS011;64938;47.696;8.066;2023-12-20T02:44:43;0.40;;;0.40;;
76176;SDS011;64938;47.696;8.066;2023-12-20T02:47:10;0.40;;;0.40;;
76176;SDS011;64938;47.696;8.066;2023-12-20T02:49:36;0.50;;;0.50;;
76176;SDS011;64938;47.696;8.066;2023-12-20T02:52:02;0.40;;;0.30;;
76176;SDS011;64938;47.696;8.066;2023-12-20T02:54:28;0.40;;;0.40;;
76176;SDS011;64938;47.696;8.066;2023-12-20T02:56:54;0.40;;;0.30;;
76176;SDS011;64938;47.696;8.066;2023-12-20T02:59:21;0.90;;;0.50;;
76176;SDS011;64938;47.696;8.066;2023-12-20T03:01:47;0.70;;;0.70;;
76176;SDS011;64938;47.696;8.066;2023-12-20T03:04:14;0.40;;;0.40;;
76176;SDS011;64938;47.696;8.066;2023-12-20T03:06:40;0.43;;;0.43;;
76176;SDS011;64938;47.696;8.066;2023-12-20T03:09:06;0.47;;;0.47;;
76176;SDS011;64938;47.696;8.066;2023-12-20T03:11:32;0.40;;;0.40;;
76176;SDS011;64938;47.696;8.066;2023-12-20T03:13:59;0.40;;;0.40;;
76176;SDS011;64938;47.696;8.066;2023-12-20T03:16:24;0.40;;;0.30;;
76176;SDS011;64938;47.696;8.066;2023-12-20T03:18:51;0.50;;;0.50;;
76176;SDS011;64938;47.696;8.066;2023-12-20T03:21:17;0.40;;;0.40;;
76176;SDS011;64938;47.696;8.066;2023-12-20T03:23:43;0.50;;;0.40;;
76176;SDS011;64938;47.696;8.066;2023-12-20T03:26:09;0.60;;;0.60;;
76176;SDS011;64938;47.696;8.066;2023-12-20T03:28:37;0.50;;;0.50;;
76176;SDS011;64938;47.696;8.066;2023-12-20T03:31:03;0.50;;;0.50;;
76176;SDS011;64938;47.696;8.066;2023-12-20T03:33:29;0.50;;;0.50;;
76176;SDS011;64938;47.696;8.066;2023-12-20T03:35:55;0.90;;;0.30;;
76176;SDS011;64938;47.696;8.066;2023-12-20T03:38:22;0.53;;;0.53;;
76176;SDS011;64938;47.696;8.066;2023-12-20T03:40:49;0.40;;;0.40;;
76176;SDS011;64938;47.696;8.066;2023-12-20T03:43:15;0.53;;;0.53;;
76176;SDS011;64938;47.696;8.066;2023-12-20T03:45:42;0.40;;;0.40;;
76176;SDS011;64938;47.696;8.066;2023-12-20T03:48:08;0.53;;;0.53;;
76176;SDS011;64938;47.696;8.066;2023-12-20T03:50:34;0.60;;;0.60;;
76176;SDS011;64938;47.696;8.066;2023-12-20T03:53:01;0.50;;;0.50;;
76176;SDS011;64938;47.696;8.066;2023-12-20T03:55:27;0.50;;;0.50;;
76176;SDS011;64938;47.696;8.066;2023-12-20T03:57:53;0.50;;;0.50;;
76176;SDS011;64938;47.696;8.066;2023-12-20T05:08:29;9.93;;;1.80;;
76176;SDS011;64938;47.696;8.066;2023-12-20T05:10:55;5.83;;;0.90;;
76176;SDS011;64938;47.696;8.066;2023-12-20T05:13:21;41.53;;;5.80;;
76176;SDS011;64938;47.696;8.066;2023-12-20T05:15:48;36.77;;;4.43;;
76176;SDS011;64938;47.696;8.066;2023-12-20T05:18:15;52.97;;;4.60;;
76176;SDS011;64938;47.696;8.066;2023-12-20T05:20:42;98.87;;;7.50;;
76176;SDS011;64938;47.696;8.066;2023-12-20T05:23:08;75.47;;;6.30;;
76176;SDS011;64938;47.696;8.066;2023-12-20T05:25:36;34.53;;;5.50;;
76176;SDS011;64938;47.696;8.066;2023-12-20T05:28:02;27.43;;;3.60;;
76176;SDS011;64938;47.696;8.066;2023-12-20T05:30:28;35.27;;;4.13;;
76176;SDS011;64938;47.696;8.066;2023-12-20T05:32:54;3.47;;;1.13;;
76176;SDS011;64938;47.696;8.066;2023-12-20T05:35:20;4.67;;;1.63;;
76176;SDS011;64938;47.696;8.066;2023-12-20T05:37:48;1.27;;;1.10;;
76176;SDS011;64938;47.696;8.066;2023-12-20T05:40:14;1.00;;;1.00;;
76176;SDS011;64938;47.696;8.066;2023-12-20T05:42:41;0.90;;;0.70;;
76176;SDS011;64938;47.696;8.066;2023-12-20T05:45:07;1.10;;;1.00;;
76176;SDS011;64938;47.696;8.066;2023-12-20T05:47:33;1.03;;;0.90;;
76176;SDS011;64938;47.696;8.066;2023-12-20T05:49:59;0.80;;;0.80;;
76176;SDS011;64938;47.696;8.066;2023-12-20T05:52:24;0.80;;;0.80;;
76176;SDS011;64938;47.696;8.066;2023-12-20T05:54:50;1.00;;;1.00;;
76176;SDS011;64938;47.696;8.066;2023-12-20T05:57:17;0.87;;;0.87;;
76176;SDS011;64938;47.696;8.066;2023-12-20T05:59:43;1.00;;;1.00;;
76176;SDS011;64938;47.696;8.066;2023-12-20T06:02:10;1.20;;;1.10;;
76176;SDS011;64938;47.696;8.066;2023-12-20T06:04:36;1.53;;;1.30;;
76176;SDS011;64938;47.696;8.066;2023-12-20T06:07:02;3.30;;;1.43;;
76176;SDS011;64938;47.696;8.066;2023-12-20T06:09:28;20.67;;;2.50;;
76176;SDS011;64938;47.696;8.066;2023-12-20T06:11:55;6.53;;;2.40;;
76176;SDS011;64938;47.696;8.066;2023-12-20T06:14:21;1.57;;;1.20;;
76176;SDS011;64938;47.696;8.066;2023-12-20T06:16:47;3.40;;;1.30;;
76176;SDS011;64938;47.696;8.066;2023-12-20T06:19:14;1.40;;;1.30;;
76176;SDS011;64938;47.696;8.066;2023-12-20T06:21:40;1.30;;;1.20;;
76176;SDS011;64938;47.696;8.066;2023-12-20T06:24:06;1.20;;;1.10;;
76176;SDS011;64938;47.696;8.066;2023-12-20T06:26:32;1.30;;;0.90;;
76176;SDS011;64938;47.696;8.066;2023-12-20T06:28:59;1.23;;;1.13;;
76176;SDS011;64938;47.696;8.066;2023-12-20T06:31:25;1.30;;;1.20;;
76176;SDS011;64938;47.696;8.066;2023-12-20T06:33:51;0.90;;;0.90;;
76176;SDS011;64938;47.696;8.066;2023-12-20T06:36:26;1.10;;;1.00;;
76176;SDS011;64938;47.696;8.066;2023-12-20T06:38:52;0.80;;;0.80;;
76176;SDS011;64938;47.696;8.066;2023-12-20T06:41:18;0.80;;;0.80;;
76176;SDS011;64938;47.696;8.066;2023-12-20T06:43:44;1.13;;;0.90;;
76176;SDS011;64938;47.696;8.066;2023-12-20T06:46:10;1.00;;;1.00;;
76176;SDS011;64938;47.696;8.066;2023-12-20T06:48:38;0.70;;;0.70;;
76176;SDS011;64938;47.696;8.066;2023-12-20T06:51:06;0.70;;;0.70;;
76176;SDS011;64938;47.696;8.066;2023-12-20T06:53:31;0.80;;;0.80;;
76176;SDS011;64938;47.696;8.066;2023-12-20T06:55:57;0.70;;;0.70;;
76176;SDS011;64938;47.696;8.066;2023-12-20T06:58:23;0.60;;;0.60;;
76176;SDS011;64938;47.696;8.066;2023-12-20T07:00:49;0.70;;;0.70;;
76176;SDS011;64938;47.696;8.066;2023-12-20T07:03:16;0.70;;;0.70;;
76176;SDS011;64938;47.696;8.066;2023-12-20T07:05:43;0.80;;;0.80;;
76176;SDS011;64938;47.696;8.066;2023-12-20T07:08:09;0.57;;;0.57;;
76176;SDS011;64938;47.696;8.066;2023-12-20T07:10:36;0.60;;;0.60;;
76176;SDS011;64938;47.696;8.066;2023-12-20T07:13:02;0.60;;;0.60;;
76176;SDS011;64938;47.696;8.066;2023-12-20T07:15:28;0.50;;;0.50;;
76176;SDS011;64938;47.696;8.066;2023-12-20T07:17:54;0.80;;;0.80;;
76176;SDS011;64938;47.696;8.066;2023-12-20T07:20:20;0.90;;;0.90;;
76176;SDS011;64938;47.696;8.066;2023-12-20T07:22:46;0.60;;;0.60;;
76176;SDS011;64938;47.696;8.066;2023-12-20T07:25:12;0.83;;;0.83;;
76176;SDS011;64938;47.696;8.066;2023-12-20T07:27:38;1.00;;;1.00;;
76176;SDS011;64938;47.696;8.066;2023-12-20T07:30:04;1.23;;;1.13;;
76176;SDS011;64938;47.696;8.066;2023-12-20T07:32:30;1.10;;;1.10;;
76176;SDS011;64938;47.696;8.066;2023-12-20T07:34:57;1.30;;;1.20;;
76176;SDS011;64938;47.696;8.066;2023-12-20T07:37:23;20.37;;;3.50;;
76176;SDS011;64938;47.696;8.066;2023-12-20T07:39:49;8.53;;;1.70;;
76176;SDS011;64938;47.696;8.066;2023-12-20T07:42:15;7.70;;;2.23;;
76176;SDS011;64938;47.696;8.066;2023-12-20T07:44:41;1.70;;;1.50;;
76176;SDS011;64938;47.696;8.066;2023-12-20T07:47:08;2.00;;;1.10;;
76176;SDS011;64938;47.696;8.066;2023-12-20T07:49:34;1.40;;;1.30;;
76176;SDS011;64938;47.696;8.066;2023-12-20T07:52:00;1.30;;;1.20;;
76176;SDS011;64938;47.696;8.066;2023-12-20T07:54:27;1.30;;;1.20;;
76176;SDS011;64938;47.696;8.066;2023-12-20T07:56:53;1.20;;;1.10;;
76176;SDS011;64938;47.696;8.066;2023-12-20T07:59:19;0.90;;;0.90;;
76176;SDS011;64938;47.696;8.066;2023-12-20T08:01:45;1.13;;;1.13;;
76176;SDS011;64938;47.696;8.066;2023-12-20T08:04:11;0.90;;;0.90;;
76176;SDS011;64938;47.696;8.066;2023-12-20T08:06:38;0.80;;;0.80;;
76176;SDS011;64938;47.696;8.066;2023-12-20T08:09:04;1.40;;;1.30;;
76176;SDS011;64938;47.696;8.066;2023-12-20T08:11:30;0.90;;;0.90;;
76176;SDS011;64938;47.696;8.066;2023-12-20T08:13:56;0.90;;;0.90;;
76176;SDS011;64938;47.696;8.066;2023-12-20T08:16:22;0.60;;;0.60;;
76176;SDS011;64938;47.696;8.066;2023-12-20T08:18:48;0.90;;;0.90;;
76176;SDS011;64938;47.696;8.066;2023-12-20T08:21:14;0.70;;;0.70;;
76176;SDS011;64938;47.696;8.066;2023-12-20T08:23:40;0.80;;;0.80;;
76176;SDS011;64938;47.696;8.066;2023-12-20T08:26:06;0.80;;;0.80;;
76176;SDS011;64938;47.696;8.066;2023-12-20T08:28:33;1.00;;;0.90;;
76176;SDS011;64938;47.696;8.066;2023-12-20T08:31:00;0.80;;;0.80;;
76176;SDS011;64938;47.696;8.066;2023-12-20T08:33:26;3.27;;;1.30;;
76176;SDS011;64938;47.696;8.066;2023-12-20T08:35:52;1.27;;;1.23;;
76176;SDS011;64938;47.696;8.066;2023-12-20T08:38:17;1.60;;;1.50;;
76176;SDS011;64938;47.696;8.066;2023-12-20T08:40:44;5.43;;;2.30;;
76176;SDS011;64938;47.696;8.066;2023-12-20T08:43:10;6.93;;;2.00;;
76176;SDS011;64938;47.696;8.066;2023-12-20T08:45:36;36.67;;;4.50;;
76176;SDS011;64938;47.696;8.066;2023-12-20T08:48:04;23.63;;;3.30;;
76176;SDS011;64938;47.696;8.066;2023-12-20T08:50:30;12.23;;;2.60;;
76176;SDS011;64938;47.696;8.066;2023-12-20T08:52:56;11.73;;;2.53;;
76176;SDS011;64938;47.696;8.066;2023-12-20T08:55:22;6.53;;;1.97;;
76176;SDS011;64938;47.696;8.066;2023-12-20T08:57:48;1.70;;;1.60;;
76176;SDS011;64938;47.696;8.066;2023-12-20T09:00:15;6.30;;;3.30;;
76176;SDS011;64938;47.696;8.066;2023-12-20T09:02:41;2.40;;;1.93;;
76176;SDS011;64938;47.696;8.066;2023-12-20T09:05:07;2.07;;;1.80;;
76176;SDS011;64938;47.696;8.066;2023-12-20T09:07:33;1.97;;;1.77;;
76176;SDS011;64938;47.696;8.066;2023-12-20T09:10:00;1.37;;;1.27;;
76176;SDS011;64938;47.696;8.066;2023-12-20T09:12:27;1.60;;;1.53;;
76176;SDS011;64938;47.696;8.066;2023-12-20T09:14:53;1.60;;;1.50;;
76176;SDS011;64938;47.696;8.066;2023-12-20T09:17:19;1.50;;;1.40;;
76176;SDS011;64938;47.696;8.066;2023-12-20T09:19:48;1.27;;;1.23;;
76176;SDS011;64938;47.696;8.066;2023-12-20T09:22:14;1.80;;;1.70;;
76176;SDS011;64938;47.696;8.066;2023-12-20T09:24:40;1.90;;;1.80;;
76176;SDS011;64938;47.696;8.066;2023-12-20T09:27:05;1.60;;;1.50;;
76176;SDS011;64938;47.696;8.066;2023-12-20T09:29:32;1.80;;;1.70;;
76176;SDS011;64938;47.696;8.066;2023-12-20T09:31:58;1.90;;;1.80;;
76176;SDS011;64938;47.696;8.066;2023-12-20T09:34:24;1.60;;;1.50;;
76176;SDS011;64938;47.696;8.066;2023-12-20T09:36:51;1.60;;;1.50;;
76176;SDS011;64938;47.696;8.066;2023-12-20T09:39:17;1.70;;;1.60;;
76176;SDS011;64938;47.696;8.066;2023-12-20T09:41:45;1.40;;;1.30;;
76176;SDS011;64938;47.696;8.066;2023-12-20T09:44:13;1.60;;;1.50;;
76176;SDS011;64938;47.696;8.066;2023-12-20T09:46:43;1.67;;;1.57;;
76176;SDS011;64938;47.696;8.066;2023-12-20T09:49:10;1.50;;;1.40;;
76176;SDS011;64938;47.696;8.066;2023-12-20T09:51:36;1.10;;;1.10;;
76176;SDS011;64938;47.696;8.066;2023-12-20T09:54:03;1.00;;;1.00;;
76176;SDS011;64938;47.696;8.066;2023-12-20T09:56:29;1.40;;;1.30;;
76176;SDS011;64938;47.696;8.066;2023-12-20T09:58:56;1.23;;;1.23;;
76176;SDS011;64938;47.696;8.066;2023-12-20T10:01:22;1.70;;;1.60;;
76176;SDS011;64938;47.696;8.066;2023-12-20T10:03:52;1.60;;;1.50;;
76176;SDS011;64938;47.696;8.066;2023-12-20T10:06:21;1.40;;;1.33;;
76176;SDS011;64938;47.696;8.066;2023-12-20T10:08:47;3.13;;;1.63;;
76176;SDS011;64938;47.696;8.066;2023-12-20T10:11:14;2.00;;;1.90;;
76176;SDS011;64938;47.696;8.066;2023-12-20T10:13:41;1.90;;;1.80;;
76176;SDS011;64938;47.696;8.066;2023-12-20T10:16:07;3.63;;;2.27;;
76176;SDS011;64938;47.696;8.066;2023-12-20T10:18:34;32.27;;;5.80;;
76176;SDS011;64938;47.696;8.066;2023-12-20T10:21:00;5.00;;;2.43;;
76176;SDS011;64938;47.696;8.066;2023-12-20T10:23:28;64.17;;;7.67;;
76176;SDS011;64938;47.696;8.066;2023-12-20T10:25:57;3.60;;;2.50;;
76176;SDS011;64938;47.696;8.066;2023-12-20T10:28:24;9.23;;;3.20;;
76176;SDS011;64938;47.696;8.066;2023-12-20T10:30:53;4.23;;;3.20;;
76176;SDS011;64938;47.696;8.066;2023-12-20T10:33:25;4.40;;;2.80;;
76176;SDS011;64938;47.696;8.066;2023-12-20T10:35:52;130.60;;;13.17;;
76176;SDS011;64938;47.696;8.066;2023-12-20T10:38:19;20.87;;;3.73;;
76176;SDS011;64938;47.696;8.066;2023-12-20T10:40:45;16.87;;;3.60;;
76176;SDS011;64938;47.696;8.066;2023-12-20T10:43:12;16.80;;;3.60;;
76176;SDS011;64938;47.696;8.066;2023-12-20T10:45:39;2.90;;;2.13;;
76176;SDS011;64938;47.696;8.066;2023-12-20T10:48:09;2.43;;;2.33;;
76176;SDS011;64938;47.696;8.066;2023-12-20T10:50:37;2.83;;;2.43;;
76176;SDS011;64938;47.696;8.066;2023-12-20T10:53:04;2.67;;;2.47;;
76176;SDS011;64938;47.696;8.066;2023-12-20T10:55:31;2.67;;;2.50;;
76176;SDS011;64938;47.696;8.066;2023-12-20T10:58:00;2.67;;;2.47;;
76176;SDS011;64938;47.696;8.066;2023-12-20T11:00:28;2.60;;;2.40;;
76176;SDS011;64938;47.696;8.066;2023-12-20T11:02:56;2.70;;;2.50;;
76176;SDS011;64938;47.696;8.066;2023-12-20T11:05:31;2.43;;;2.23;;
76176;SDS011;64938;47.696;8.066;2023-12-20T11:08:03;2.13;;;2.00;;
76176;SDS011;64938;47.696;8.066;2023-12-20T11:10:39;2.70;;;2.50;;
76176;SDS011;64938;47.696;8.066;2023-12-20T11:13:17;2.50;;;2.40;;
76176;SDS011;64938;47.696;8.066;2023-12-20T11:15:46;38.87;;;5.60;;
76176;SDS011;64938;47.696;8.066;2023-12-20T11:18:12;3.53;;;2.67;;
76176;SDS011;64938;47.696;8.066;2023-12-20T11:20:38;8.07;;;3.50;;
76176;SDS011;64938;47.696;8.066;2023-12-20T11:23:06;23.57;;;4.60;;
76176;SDS011;64938;47.696;8.066;2023-12-20T11:25:46;3.60;;;3.30;;
76176;SDS011;64938;47.696;8.066;2023-12-20T11:28:13;4.40;;;3.07;;
76176;SDS011;64938;47.696;8.066;2023-12-20T11:30:42;3.50;;;3.20;;
76176;SDS011;64938;47.696;8.066;2023-12-20T11:33:12;3.37;;;3.07;;
76176;SDS011;64938;47.696;8.066;2023-12-20T11:35:41;3.07;;;2.87;;
76176;SDS011;64938;47.696;8.066;2023-12-20T11:38:08;3.03;;;2.83;;
76176;SDS011;64938;47.696;8.066;2023-12-20T11:40:35;2.80;;;2.60;;
76176;SDS011;64938;47.696;8.066;2023-12-20T11:43:02;3.40;;;3.10;;
76176;SDS011;64938;47.696;8.066;2023-12-20T11:45:28;3.00;;;2.80;;
76176;SDS011;64938;47.696;8.066;2023-12-20T11:47:55;3.07;;;2.87;;
76176;SDS011;64938;47.696;8.066;2023-12-20T11:50:22;2.73;;;2.53;;
76176;SDS011;64938;47.696;8.066;2023-12-20T11:52:49;2.60;;;2.40;;
76176;SDS011;64938;47.696;8.066;2023-12-20T11:55:16;2.83;;;2.53;;
76176;SDS011;64938;47.696;8.066;2023-12-20T11:57:43;2.83;;;2.63;;
76176;SDS011;64938;47.696;8.066;2023-12-20T12:00:12;2.93;;;2.67;;
76176;SDS011;64938;47.696;8.066;2023-12-20T12:02:39;2.80;;;2.60;;
76176;SDS011;64938;47.696;8.066;2023-12-20T12:05:05;2.70;;;2.50;;
76176;SDS011;64938;47.696;8.066;2023-12-20T12:07:31;2.90;;;2.70;;
76176;SDS011;64938;47.696;8.066;2023-12-20T12:09:58;3.70;;;3.30;;
76176;SDS011;64938;47.696;8.066;2023-12-20T12:12:24;3.03;;;2.83;;
76176;SDS011;64938;47.696;8.066;2023-12-20T12:14:52;2.93;;;2.70;;
76176;SDS011;64938;47.696;8.066;2023-12-20T12:17:18;2.73;;;2.53;;
76176;SDS011;64938;47.696;8.066;2023-12-20T12:19:44;3.30;;;3.00;;
76176;SDS011;64938;47.696;8.066;2023-12-20T12:22:10;3.40;;;3.10;;
76176;SDS011;64938;47.696;8.066;2023-12-20T12:24:39;3.67;;;3.27;;
76176;SDS011;64938;47.696;8.066;2023-12-20T12:27:06;3.70;;;3.40;;
76176;SDS011;64938;47.696;8.066;2023-12-20T12:29:33;4.50;;;3.20;;
76176;SDS011;64938;47.696;8.066;2023-12-20T12:32:00;4.97;;;4.07;;
76176;SDS011;64938;47.696;8.066;2023-12-20T12:34:27;3.93;;;3.53;;
76176;SDS011;64938;47.696;8.066;2023-12-20T12:36:53;4.50;;;4.10;;
76176;SDS011;64938;47.696;8.066;2023-12-20T12:39:19;4.60;;;4.10;;
76176;SDS011;64938;47.696;8.066;2023-12-20T12:41:45;5.37;;;4.30;;
76176;SDS011;64938;47.696;8.066;2023-12-20T12:44:11;4.70;;;4.17;;
76176;SDS011;64938;47.696;8.066;2023-12-20T12:46:37;5.00;;;4.53;;
76176;SDS011;64938;47.696;8.066;2023-12-20T12:49:03;4.77;;;4.30;;
76176;SDS011;64938;47.696;8.066;2023-12-20T12:51:29;7.47;;;5.50;;
76176;SDS011;64938;47.696;8.066;2023-12-20T12:53:55;12.83;;;7.20;;
76176;SDS011;64938;47.696;8.066;2023-12-20T12:56:21;7.10;;;6.40;;
76176;SDS011;64938;47.696;8.066;2023-12-20T12:58:48;9.00;;;7.23;;
76176;SDS011;64938;47.696;8.066;2023-12-20T13:01:14;6.67;;;5.87;;
76176;SDS011;64938;47.696;8.066;2023-12-20T13:03:40;8.50;;;6.87;;
76176;SDS011;64938;47.696;8.066;2023-12-20T13:06:07;5.17;;;4.53;;
76176;SDS011;64938;47.696;8.066;2023-12-20T13:08:34;4.70;;;4.10;;
76176;SDS011;64938;47.696;8.066;2023-12-20T13:11:01;5.90;;;5.03;;
76176;SDS011;64938;47.696;8.066;2023-12-20T13:13:30;6.30;;;5.33;;
76176;SDS011;64938;47.696;8.066;2023-12-20T13:15:56;4.43;;;4.03;;
76176;SDS011;64938;47.696;8.066;2023-12-20T13:18:23;4.30;;;3.80;;
76176;SDS011;64938;47.696;8.066;2023-12-20T13:20:49;3.77;;;3.47;;
76176;SDS011;64938;47.696;8.066;2023-12-20T13:23:15;4.83;;;3.93;;
76176;SDS011;64938;47.696;8.066;2023-12-20T13:25:43;4.70;;;3.80;;
76176;SDS011;64938;47.696;8.066;2023-12-20T13:28:13;4.80;;;3.90;;
76176;SDS011;64938;47.696;8.066;2023-12-20T13:30:40;4.93;;;3.93;;
76176;SDS011;64938;47.696;8.066;2023-12-20T13:33:06;5.60;;;4.53;;
76176;SDS011;64938;47.696;8.066;2023-12-20T13:35:32;4.37;;;3.97;;
76176;SDS011;64938;47.696;8.066;2023-12-20T13:37:59;7.20;;;3.97;;
76176;SDS011;64938;47.696;8.066;2023-12-20T13:40:26;5.93;;;4.57;;
76176;SDS011;64938;47.696;8.066;2023-12-20T13:42:53;5.23;;;4.17;;
76176;SDS011;64938;47.696;8.066;2023-12-20T13:45:20;5.20;;;4.30;;
76176;SDS011;64938;47.696;8.066;2023-12-20T13:47:46;5.13;;;4.30;;
76176;SDS011;64938;47.696;8.066;2023-12-20T13:50:12;5.20;;;4.70;;
76176;SDS011;64938;47.696;8.066;2023-12-20T13:52:39;8.70;;;4.30;;
76176;SDS011;64938;47.696;8.066;2023-12-20T13:55:04;4.63;;;3.83;;
76176;SDS011;64938;47.696;8.066;2023-12-20T13:57:33;6.23;;;3.63;;
76176;SDS011;64938;47.696;8.066;2023-12-20T13:59:59;7.57;;;4.00;;
76176;SDS011;64938;47.696;8.066;2023-12-20T14:02:25;6.13;;;4.17;;
76176;SDS011;64938;47.696;8.066;2023-12-20T14:04:52;4.90;;;3.33;;
76176;SDS011;64938;47.696;8.066;2023-12-20T14:07:18;3.80;;;3.50;;
76176;SDS011;64938;47.696;8.066;2023-12-20T14:09:44;7.67;;;3.40;;
76176;SDS011;64938;47.696;8.066;2023-12-20T14:12:11;3.97;;;3.20;;
76176;SDS011;64938;47.696;8.066;2023-12-20T14:14:37;6.70;;;2.87;;
76176;SDS011;64938;47.696;8.066;2023-12-20T14:17:03;4.20;;;2.83;;
76176;SDS011;64938;47.696;8.066;2023-12-20T14:19:32;8.63;;;3.97;;
76176;SDS011;64938;47.696;8.066;2023-12-20T14:21:58;4.30;;;3.30;;
76176;SDS011;64938;47.696;8.066;2023-12-20T14:24:27;4.47;;;3.10;;
76176;SDS011;64938;47.696;8.066;2023-12-20T14:26:53;5.90;;;2.80;;
76176;SDS011;64938;47.696;8.066;2023-12-20T14:29:20;5.10;;;3.00;;
76176;SDS011;64938;47.696;8.066;2023-12-20T14:31:46;3.90;;;2.70;;
76176;SDS011;64938;47.696;8.066;2023-12-20T14:34:12;4.27;;;2.90;;
76176;SDS011;64938;47.696;8.066;2023-12-20T14:36:41;5.20;;;3.20;;
76176;SDS011;64938;47.696;8.066;2023-12-20T14:39:07;4.20;;;3.33;;
76176;SDS011;64938;47.696;8.066;2023-12-20T14:41:34;8.13;;;3.70;;
76176;SDS011;64938;47.696;8.066;2023-12-20T14:44:06;7.10;;;3.13;;
76176;SDS011;64938;47.696;8.066;2023-12-20T14:46:32;6.47;;;3.30;;
76176;SDS011;64938;47.696;8.066;2023-12-20T14:48:58;4.97;;;3.10;;
76176;SDS011;64938;47.696;8.066;2023-12-20T14:51:24;3.80;;;2.40;;
76176;SDS011;64938;47.696;8.066;2023-12-20T14:53:50;3.63;;;2.30;;
76176;SDS011;64938;47.696;8.066;2023-12-20T14:56:16;9.23;;;3.27;;
76176;SDS011;64938;47.696;8.066;2023-12-20T14:58:42;3.57;;;2.30;;
76176;SDS011;64938;47.696;8.066;2023-12-20T15:01:08;3.40;;;2.57;;
76176;SDS011;64938;47.696;8.066;2023-12-20T15:03:34;6.20;;;2.50;;
76176;SDS011;64938;47.696;8.066;2023-12-20T15:06:00;7.70;;;2.93;;
76176;SDS011;64938;47.696;8.066;2023-12-20T15:08:27;6.80;;;2.90;;
76176;SDS011;64938;47.696;8.066;2023-12-20T15:10:53;3.10;;;2.83;;
76176;SDS011;64938;47.696;8.066;2023-12-20T15:13:19;4.50;;;2.70;;
76176;SDS011;64938;47.696;8.066;2023-12-20T15:15:45;4.03;;;2.20;;
76176;SDS011;64938;47.696;8.066;2023-12-20T15:18:12;4.60;;;2.37;;
76176;SDS011;64938;47.696;8.066;2023-12-20T15:20:38;4.20;;;2.33;;
76176;SDS011;64938;47.696;8.066;2023-12-20T15:23:05;4.03;;;2.50;;
76176;SDS011;64938;47.696;8.066;2023-12-20T15:25:33;6.03;;;2.43;;
76176;SDS011;64938;47.696;8.066;2023-12-20T15:27:59;5.70;;;2.90;;
76176;SDS011;64938;47.696;8.066;2023-12-20T15:30:27;3.03;;;2.40;;
76176;SDS011;64938;47.696;8.066;2023-12-20T15:32:53;3.73;;;2.70;;
76176;SDS011;64938;47.696;8.066;2023-12-20T15:35:19;4.73;;;2.43;;
76176;SDS011;64938;47.696;8.066;2023-12-20T15:37:45;3.50;;;2.90;;
76176;SDS011;64938;47.696;8.066;2023-12-20T15:40:12;8.10;;;2.40;;
76176;SDS011;64938;47.696;8.066;2023-12-20T15:42:39;5.87;;;2.73;;
76176;SDS011;64938;47.696;8.066;2023-12-20T15:45:05;6.83;;;2.63;;
76176;SDS011;64938;47.696;8.066;2023-12-20T15:47:33;6.97;;;2.40;;
76176;SDS011;64938;47.696;8.066;2023-12-20T15:50:02;4.07;;;2.20;;
76176;SDS011;64938;47.696;8.066;2023-12-20T15:52:29;5.00;;;2.20;;
76176;SDS011;64938;47.696;8.066;2023-12-20T15:54:56;2.73;;;2.50;;
76176;SDS011;64938;47.696;8.066;2023-12-20T15:57:22;7.20;;;2.43;;
76176;SDS011;64938;47.696;8.066;2023-12-20T15:59:48;2.20;;;1.90;;
76176;SDS011;64938;47.696;8.066;2023-12-20T16:02:15;5.23;;;3.20;;
76176;SDS011;64938;47.696;8.066;2023-12-20T16:04:42;8.07;;;3.07;;
76176;SDS011;64938;47.696;8.066;2023-12-20T16:07:09;4.00;;;2.93;;
76176;SDS011;64938;47.696;8.066;2023-12-20T16:09:35;5.83;;;2.53;;
76176;SDS011;64938;47.696;8.066;2023-12-20T16:12:05;6.27;;;2.63;;
76176;SDS011;64938;47.696;8.066;2023-12-20T16:14:31;5.07;;;3.03;;
76176;SDS011;64938;47.696;8.066;2023-12-20T16:16:56;5.83;;;3.10;;
76176;SDS011;64938;47.696;8.066;2023-12-20T16:19:24;5.63;;;2.30;;
76176;SDS011;64938;47.696;8.066;2023-12-20T16:21:50;3.70;;;2.40;;
76176;SDS011;64938;47.696;8.066;2023-12-20T16:24:16;4.13;;;2.70;;
76176;SDS011;64938;47.696;8.066;2023-12-20T16:26:42;3.43;;;2.80;;
76176;SDS011;64938;47.696;8.066;2023-12-20T16:29:07;6.37;;;2.60;;
76176;SDS011;64938;47.696;8.066;2023-12-20T16:31:34;4.83;;;2.97;;
76176;SDS011;64938;47.696;8.066;2023-12-20T16:34:00;5.27;;;2.10;;
76176;SDS011;64938;47.696;8.066;2023-12-20T16:36:29;5.57;;;3.50;;
76176;SDS011;64938;47.696;8.066;2023-12-20T16:39:15;9.70;;;4.37;;
76176;SDS011;64938;47.696;8.066;2023-12-20T16:41:41;4.83;;;2.50;;
76176;SDS011;64938;47.696;8.066;2023-12-20T16:44:08;2.87;;;2.60;;
76176;SDS011;64938;47.696;8.066;2023-12-20T16:46:36;4.17;;;2.47;;
76176;SDS011;64938;47.696;8.066;2023-12-20T16:49:02;6.63;;;3.33;;
76176;SDS011;64938;47.696;8.066;2023-12-20T16:51:28;5.43;;;2.93;;
76176;SDS011;64938;47.696;8.066;2023-12-20T16:53:55;5.57;;;3.00;;
76176;SDS011;64938;47.696;8.066;2023-12-20T16:56:21;7.17;;;3.33;;
76176;SDS011;64938;47.696;8.066;2023-12-20T16:58:47;4.60;;;2.67;;